Time;durP1;ratioP1;P1;durP2;ratioP2;P2;SDS_P1;SDS_P2;PMS_P1;PMS_P2;Temp;Humidity;BMP_temperature;BMP_pressure;BME280_temperature;BME280_humidity;BME280_pressure;Samples;Min_cycle;Max_cycle;Signal;HPM_P1;HPM_P2
2022/06/29 00:00:17;;;;;;;16.42;6.10;;;;;;;;;;5055157;28;20028;-58
2022/06/29 00:02:43;;;;;;;16.40;5.80;;;;;;;;;;5054887;28;20065;-59
2022/06/29 00:05:10;;;;;;;14.63;7.30;;;;;;;;;;5054493;28;20124;-59
2022/06/29 00:07:36;;;;;;;19.58;6.70;;;;;;;;;;5037145;28;20063;-59
2022/06/29 00:10:03;;;;;;;22.38;7.43;;;;;;;;;;5054698;28;20110;-59
2022/06/29 00:12:29;;;;;;;;;;;;;;;;;;5055402;28;20420;-57
2022/06/29 00:14:55;;;;;;;18.60;6.35;;;;;;;;;;5054531;28;19908;-59
2022/06/29 00:17:22;;;;;;;17.65;7.32;;;;;;;;;;5054350;28;20016;-59
2022/06/29 00:19:48;;;;;;;15.00;7.97;;;;;;;;;;5054423;28;20055;-59
2022/06/29 00:22:14;;;;;;;16.70;8.35;;;;;;;;;;5054979;28;20481;-59
2022/06/29 00:24:40;;;;;;;15.47;8.03;;;;;;;;;;5054704;28;20032;-57
2022/06/29 00:27:06;;;;;;;15.53;8.77;;;;;;;;;;5054157;28;20393;-59
2022/06/29 00:29:32;;;;;;;14.30;8.88;;;;;;;;;;5054361;28;20283;-59
2022/06/29 00:31:58;;;;;;;17.10;8.00;;;;;;;;;;5054169;28;20029;-59
2022/06/29 00:34:24;;;;;;;19.03;10.20;;;;;;;;;;5054347;28;20050;-59
2022/06/29 00:36:50;;;;;;;18.23;10.03;;;;;;;;;;5053991;28;20321;-59
2022/06/29 00:39:16;;;;;;;15.05;8.80;;;;;;;;;;5054474;28;20473;-60
2022/06/29 00:41:43;;;;;;;16.47;8.40;;;;;;;;;;5053935;28;20033;-60
2022/06/29 00:44:09;;;;;;;17.60;9.75;;;;;;;;;;5054338;28;20267;-59
2022/06/29 00:46:36;;;;;;;19.70;8.75;;;;;;;;;;5053553;28;20032;-59
2022/06/29 00:49:02;;;;;;;15.50;9.70;;;;;;;;;;5035951;28;20020;-59
2022/06/29 00:51:30;;;;;;;19.23;10.93;;;;;;;;;;5054416;28;20021;-59
2022/06/29 00:53:57;;;;;;;17.15;9.40;;;;;;;;;;5053951;28;20493;-60
2022/06/29 00:56:25;;;;;;;13.98;9.10;;;;;;;;;;5052930;28;20029;-59
2022/06/29 00:58:54;;;;;;;14.45;10.00;;;;;;;;;;5053691;28;20021;-59
2022/06/29 01:01:20;;;;;;;12.70;10.02;;;;;;;;;;5054152;28;20524;-58
2022/06/29 01:03:46;;;;;;;16.73;9.77;;;;;;;;;;5053832;28;20485;-59
2022/06/29 01:06:12;;;;;;;16.10;9.93;;;;;;;;;;5035559;28;20473;-60
2022/06/29 01:08:38;;;;;;;12.10;8.73;;;;;;;;;;5053368;28;20412;-59
2022/06/29 01:11:04;;;;;;;17.00;9.57;;;;;;;;;;5053956;28;20293;-59
2022/06/29 01:13:30;;;;;;;13.98;10.15;;;;;;;;;;5035859;28;20477;-60
2022/06/29 01:15:56;;;;;;;11.93;9.53;;;;;;;;;;5053797;28;20082;-60
2022/06/29 01:18:22;;;;;;;14.50;9.60;;;;;;;;;;5053602;28;20122;-58
2022/06/29 01:20:48;;;;;;;21.50;9.67;;;;;;;;;;5053019;28;20024;-59
2022/06/29 01:23:15;;;;;;;13.53;10.43;;;;;;;;;;5035747;28;20370;-59
2022/06/29 01:25:41;;;;;;;17.13;10.30;;;;;;;;;;5053356;28;20044;-59
2022/06/29 01:28:07;;;;;;;19.47;10.50;;;;;;;;;;5053327;28;20107;-59
2022/06/29 01:30:33;;;;;;;17.00;9.87;;;;;;;;;;5053332;28;20021;-56
2022/06/29 01:32:59;;;;;;;13.50;10.23;;;;;;;;;;5053581;28;20255;-58
2022/06/29 01:35:25;;;;;;;16.23;10.97;;;;;;;;;;5052953;28;20025;-58
2022/06/29 01:37:51;;;;;;;12.47;9.80;;;;;;;;;;5052915;28;20112;-58
2022/06/29 01:40:17;;;;;;;14.17;9.90;;;;;;;;;;5053286;28;20271;-58
2022/06/29 01:42:43;;;;;;;13.02;9.65;;;;;;;;;;5052830;28;20075;-59
2022/06/29 01:45:09;;;;;;;15.37;9.93;;;;;;;;;;5053032;28;20119;-58
2022/06/29 01:47:36;;;;;;;20.40;12.20;;;;;;;;;;5052801;28;20282;-59
2022/06/29 01:50:02;;;;;;;19.83;10.83;;;;;;;;;;5052679;28;20036;-58
2022/06/29 01:52:28;;;;;;;13.93;10.47;;;;;;;;;;5052959;28;20497;-59
2022/06/29 01:54:54;;;;;;;13.60;11.03;;;;;;;;;;5052973;28;20351;-59
2022/06/29 01:57:20;;;;;;;19.83;10.87;;;;;;;;;;5052717;28;20060;-58
2022/06/29 01:59:46;;;;;;;13.07;10.67;;;;;;;;;;5052840;28;20021;-59
2022/06/29 02:02:12;;;;;;;19.70;11.10;;;;;;;;;;5052688;28;20021;-59
2022/06/29 02:04:38;;;;;;;15.60;11.13;;;;;;;;;;5052436;28;20348;-59
2022/06/29 02:07:04;;;;;;;12.97;9.27;;;;;;;;;;5052318;28;20021;-59
2022/06/29 02:09:30;;;;;;;14.87;10.33;;;;;;;;;;5051712;28;20025;-59
2022/06/29 02:11:56;;;;;;;19.30;10.23;;;;;;;;;;5052934;28;20393;-57
2022/06/29 02:14:22;;;;;;;19.70;11.00;;;;;;;;;;5052320;28;20759;-58
2022/06/29 02:16:48;;;;;;;20.43;10.47;;;;;;;;;;5052492;28;20516;-59
2022/06/29 02:19:14;;;;;;;19.67;10.00;;;;;;;;;;5052250;28;20449;-58
2022/06/29 02:21:40;;;;;;;14.30;9.17;;;;;;;;;;5052684;28;20031;-59
2022/06/29 02:24:06;;;;;;;14.13;9.27;;;;;;;;;;5052288;28;20052;-59
2022/06/29 02:26:32;;;;;;;14.95;8.50;;;;;;;;;;5051677;28;20054;-59
2022/06/29 02:28:58;;;;;;;12.10;8.93;;;;;;;;;;5052178;28;20374;-59
2022/06/29 02:36:54;;;;;;;15.05;9.93;;;;;;;;;;5052203;28;20555;-57
2022/06/29 02:39:20;;;;;;;16.83;9.60;;;;;;;;;;5051252;28;20036;-58
2022/06/29 02:41:46;;;;;;;12.13;8.40;;;;;;;;;;5051893;28;20044;-58
2022/06/29 02:44:12;;;;;;;12.23;8.03;;;;;;;;;;5034168;28;20032;-58
2022/06/29 02:46:38;;;;;;;13.63;8.40;;;;;;;;;;5051112;28;20044;-58
2022/06/29 02:49:04;;;;;;;15.10;8.77;;;;;;;;;;5050664;28;20048;-60
2022/06/29 02:51:30;;;;;;;11.90;7.87;;;;;;;;;;5050250;28;20397;-59
2022/06/29 02:53:56;;;;;;;13.80;8.37;;;;;;;;;;5051450;28;20390;-59
2022/06/29 02:56:22;;;;;;;14.70;8.70;;;;;;;;;;5051569;28;20444;-59
2022/06/29 02:58:48;;;;;;;15.07;7.50;;;;;;;;;;5051846;28;20033;-58
2022/06/29 03:01:14;;;;;;;11.93;7.60;;;;;;;;;;5051354;28;20267;-59
2022/06/29 03:03:40;;;;;;;10.23;6.70;;;;;;;;;;5051808;28;20147;-60
2022/06/29 03:06:06;;;;;;;13.63;7.30;;;;;;;;;;5051305;28;20747;-60
2022/06/29 03:08:32;;;;;;;10.27;6.17;;;;;;;;;;5051602;28;20124;-59
2022/06/29 03:10:58;;;;;;;11.55;6.13;;;;;;;;;;5051641;28;20271;-60
2022/06/29 03:13:24;;;;;;;12.87;6.03;;;;;;;;;;5033833;28;20029;-61
2022/06/29 03:15:51;;;;;;;9.00;5.50;;;;;;;;;;5050728;28;20078;-61
2022/06/29 03:18:17;;;;;;;13.98;5.50;;;;;;;;;;5030329;28;20036;-61
2022/06/29 03:20:43;;;;;;;10.20;4.97;;;;;;;;;;5049349;28;20032;-61
2022/06/29 03:23:09;;;;;;;11.00;4.77;;;;;;;;;;5037585;28;20047;-60
2022/06/29 03:25:36;;;;;;;10.40;5.00;;;;;;;;;;5051722;28;20061;-60
2022/06/29 03:28:02;;;;;;;8.10;4.50;;;;;;;;;;5051005;28;20036;-60
2022/06/29 03:30:28;;;;;;;8.93;4.87;;;;;;;;;;5051367;28;20268;-60
2022/06/29 03:32:54;;;;;;;8.77;4.38;;;;;;;;;;5051581;28;20028;-60
2022/06/29 03:35:21;;;;;;;7.97;4.50;;;;;;;;;;5051478;28;20074;-61
2022/06/29 03:37:47;;;;;;;8.48;4.40;;;;;;;;;;5050583;28;20111;-60
2022/06/29 03:40:13;;;;;;;11.50;5.40;;;;;;;;;;5051160;28;20033;-58
2022/06/29 03:42:39;;;;;;;6.10;4.30;;;;;;;;;;5051016;28;20510;-60
2022/06/29 03:45:05;;;;;;;16.33;4.03;;;;;;;;;;5051021;28;20397;-58
2022/06/29 03:47:31;;;;;;;7.75;4.80;;;;;;;;;;5050892;28;20032;-60
2022/06/29 03:49:57;;;;;;;14.23;4.30;;;;;;;;;;5032697;28;20597;-59
2022/06/29 03:52:23;;;;;;;10.80;4.73;;;;;;;;;;5051241;28;20029;-60
2022/06/29 03:54:50;;;;;;;9.27;4.67;;;;;;;;;;5051500;28;20112;-61
2022/06/29 03:57:16;;;;;;;8.07;4.00;;;;;;;;;;5051822;28;20021;-60
2022/06/29 03:59:42;;;;;;;9.07;4.40;;;;;;;;;;5032579;28;20025;-60
2022/06/29 04:02:08;;;;;;;8.20;4.47;;;;;;;;;;5051049;28;20055;-59
2022/06/29 04:04:34;;;;;;;5.93;3.90;;;;;;;;;;5050482;28;20473;-60
2022/06/29 04:07:00;;;;;;;9.20;4.53;;;;;;;;;;5050965;28;20267;-59
2022/06/29 04:09:26;;;;;;;8.40;4.53;;;;;;;;;;5033133;28;20025;-60
2022/06/29 04:11:53;;;;;;;10.80;4.40;;;;;;;;;;5051201;28;20112;-59
2022/06/29 04:14:20;;;;;;;6.70;4.25;;;;;;;;;;5051338;28;20047;-60
2022/06/29 04:16:46;;;;;;;;;;;;;;;;;;5051685;28;20353;-59
2022/06/29 04:19:12;;;;;;;11.25;4.03;;;;;;;;;;5050808;28;19917;-59
2022/06/29 04:21:39;;;;;;;6.57;3.97;;;;;;;;;;5051174;28;20088;-60
2022/06/29 04:24:05;;;;;;;8.82;4.88;;;;;;;;;;5033187;28;20457;-60
2022/06/29 04:26:31;;;;;;;6.78;4.28;;;;;;;;;;5050983;28;20025;-60
2022/06/29 04:28:57;;;;;;;12.15;5.75;;;;;;;;;;5050781;28;20242;-60
2022/06/29 04:31:23;;;;;;;10.70;5.57;;;;;;;;;;5051537;28;20021;-58
2022/06/29 04:33:50;;;;;;;7.13;4.17;;;;;;;;;;5054583;28;20116;-60
2022/06/29 04:36:16;;;;;;;9.65;4.78;;;;;;;;;;5036828;28;20032;-61
2022/06/29 04:38:42;;;;;;;10.17;4.07;;;;;;;;;;5054655;28;20025;-59
2022/06/29 04:41:08;;;;;;;9.75;4.93;;;;;;;;;;5054576;28;20047;-60
2022/06/29 04:43:34;;;;;;;8.40;4.83;;;;;;;;;;5054787;28;20370;-60
2022/06/29 04:48:45;;;;;;;11.07;5.20;;;;;;;;;;5054123;28;20048;-59
2022/06/29 04:51:13;;;;;;;12.73;4.70;;;;;;;;;;5054529;28;20425;-59
2022/06/29 04:53:39;;;;;;;7.17;5.37;;;;;;;;;;5054286;28;20096;-59
2022/06/29 04:56:05;;;;;;;24.65;4.88;;;;;;;;;;5054372;28;20536;-58
2022/06/29 04:58:31;;;;;;;9.43;5.13;;;;;;;;;;5053955;28;20029;-59
2022/06/29 05:00:57;;;;;;;9.80;4.93;;;;;;;;;;5054122;28;20259;-60
2022/06/29 05:03:23;;;;;;;6.87;4.77;;;;;;;;;;5054196;28;20091;-60
2022/06/29 05:05:49;;;;;;;10.03;5.17;;;;;;;;;;5054210;28;20037;-60
2022/06/29 05:08:16;;;;;;;10.70;4.50;;;;;;;;;;5035955;28;20501;-60
2022/06/29 05:10:42;;;;;;;17.95;5.93;;;;;;;;;;5054054;28;20017;-61
2022/06/29 05:13:11;;;;;;;8.20;4.72;;;;;;;;;;5053817;28;20029;-60
2022/06/29 05:15:38;;;;;;;10.50;4.88;;;;;;;;;;5053945;28;20407;-59
2022/06/29 05:18:04;;;;;;;8.00;4.88;;;;;;;;;;5053829;28;20116;-60
2022/06/29 05:20:30;;;;;;;12.52;5.13;;;;;;;;;;5054136;28;20040;-60
2022/06/29 05:22:56;;;;;;;12.23;5.00;;;;;;;;;;5053820;28;20104;-59
2022/06/29 05:25:23;;;;;;;13.97;5.37;;;;;;;;;;5035861;28;20527;-60
2022/06/29 05:27:49;;;;;;;13.30;5.32;;;;;;;;;;5053364;28;20079;-59
2022/06/29 05:30:15;;;;;;;8.18;5.38;;;;;;;;;;5035663;28;20459;-60
2022/06/29 05:32:42;;;;;;;9.97;5.13;;;;;;;;;;5053838;28;20029;-60
2022/06/29 05:35:08;;;;;;;12.13;5.05;;;;;;;;;;5053624;28;20056;-60
2022/06/29 05:37:34;;;;;;;8.98;5.25;;;;;;;;;;5053678;28;20031;-60
2022/06/29 05:40:01;;;;;;;6.68;4.57;;;;;;;;;;5053630;28;20032;-61
2022/06/29 05:42:27;;;;;;;7.55;4.95;;;;;;;;;;5052905;28;20028;-60
2022/06/29 05:44:53;;;;;;;11.27;5.60;;;;;;;;;;5034736;28;20431;-60
2022/06/29 05:47:19;;;;;;;10.68;5.50;;;;;;;;;;5053203;28;20100;-60
2022/06/29 05:49:45;;;;;;;11.43;5.20;;;;;;;;;;5053608;28;20033;-60
2022/06/29 05:52:11;;;;;;;12.10;5.67;;;;;;;;;;5053264;28;20079;-59
2022/06/29 05:54:38;;;;;;;10.93;5.33;;;;;;;;;;5053220;28;20025;-60
2022/06/29 05:57:05;;;;;;;8.40;5.30;;;;;;;;;;5052825;28;20086;-60
2022/06/29 05:59:31;;;;;;;;;;;;;;;;;;5035565;28;20033;-60
2022/06/29 06:01:57;;;;;;;8.68;4.68;;;;;;;;;;5053087;28;19909;-59
2022/06/29 06:04:23;;;;;;;9.50;5.43;;;;;;;;;;5053103;28;20051;-60
2022/06/29 06:06:49;;;;;;;12.83;5.30;;;;;;;;;;5053070;28;20029;-59
2022/06/29 06:09:15;;;;;;;9.45;4.43;;;;;;;;;;5052598;28;20303;-59
2022/06/29 06:11:41;;;;;;;10.73;4.32;;;;;;;;;;5052666;28;20025;-60
2022/06/29 06:14:07;;;;;;;10.20;4.17;;;;;;;;;;5052794;28;20025;-60
2022/06/29 06:16:33;;;;;;;8.33;3.83;;;;;;;;;;5052778;28;20247;-59
2022/06/29 06:18:59;;;;;;;6.87;3.67;;;;;;;;;;5052479;28;20105;-60
2022/06/29 06:21:26;;;;;;;10.30;5.20;;;;;;;;;;5052727;28;20052;-61
2022/06/29 06:23:52;;;;;;;9.63;4.05;;;;;;;;;;5052661;28;20528;-60
2022/06/29 06:26:18;;;;;;;11.37;4.17;;;;;;;;;;5052510;28;20094;-60
2022/06/29 06:28:44;;;;;;;9.60;4.27;;;;;;;;;;5052305;28;20629;-60
2022/06/29 06:31:10;;;;;;;5.63;3.60;;;;;;;;;;5052879;28;20416;-61
2022/06/29 06:33:36;;;;;;;11.53;4.60;;;;;;;;;;5052460;28;20473;-59
2022/06/29 06:36:02;;;;;;;9.63;4.03;;;;;;;;;;5052392;28;20394;-60
2022/06/29 06:38:28;;;;;;;13.37;5.40;;;;;;;;;;5052096;28;20469;-60
2022/06/29 06:43:41;;;;;;;8.68;3.85;;;;;;;;;;5052257;28;20040;-60
2022/06/29 06:46:07;;;;;;;9.77;3.92;;;;;;;;;;5052250;28;20025;-60
2022/06/29 06:48:33;;;;;;;9.07;3.63;;;;;;;;;;5051823;28;20037;-60
2022/06/29 06:50:59;;;;;;;6.23;2.77;;;;;;;;;;5052206;28;20025;-60
2022/06/29 06:53:26;;;;;;;11.43;3.33;;;;;;;;;;5051990;28;20605;-59
2022/06/29 06:55:52;;;;;;;9.75;3.47;;;;;;;;;;5052000;28;20052;-60
2022/06/29 06:58:18;;;;;;;7.60;2.72;;;;;;;;;;5051823;28;20082;-60
2022/06/29 07:00:44;;;;;;;13.80;3.47;;;;;;;;;;5034194;28;20113;-60
2022/06/29 07:03:10;;;;;;;8.82;2.88;;;;;;;;;;5051960;28;20036;-60
2022/06/29 07:05:37;;;;;;;8.48;4.00;;;;;;;;;;5051726;28;20035;-60
2022/06/29 07:08:03;;;;;;;;;;;;;;;;;;5052042;28;20021;-60
2022/06/29 07:10:29;;;;;;;15.13;3.92;;;;;;;;;;5051854;28;19912;-60
2022/06/29 07:12:55;;;;;;;7.90;2.65;;;;;;;;;;5051942;28;20036;-60
2022/06/29 07:15:21;;;;;;;7.05;3.25;;;;;;;;;;5051767;28;20021;-60
2022/06/29 07:17:47;;;;;;;5.67;2.83;;;;;;;;;;5051669;28;20032;-60
2022/06/29 07:20:13;;;;;;;7.37;3.23;;;;;;;;;;5052065;28;20317;-61
2022/06/29 07:22:39;;;;;;;10.43;3.47;;;;;;;;;;5051666;28;20039;-59
2022/06/29 07:25:05;;;;;;;7.03;3.53;;;;;;;;;;5051678;28;20096;-59
2022/06/29 07:27:32;;;;;;;9.15;3.35;;;;;;;;;;5051504;28;20075;-60
2022/06/29 07:29:58;;;;;;;6.80;3.15;;;;;;;;;;5051674;28;20050;-60
2022/06/29 07:32:24;;;;;;;10.38;3.35;;;;;;;;;;5051609;28;20025;-61
2022/06/29 07:34:50;;;;;;;11.32;3.10;;;;;;;;;;5051522;28;20021;-60
2022/06/29 07:37:16;;;;;;;10.53;3.43;;;;;;;;;;5051471;28;20300;-61
2022/06/29 07:39:42;;;;;;;6.17;3.73;;;;;;;;;;5051493;28;20270;-59
2022/06/29 07:42:08;;;;;;;8.82;3.83;;;;;;;;;;5051487;28;20033;-60
2022/06/29 07:44:34;;;;;;;7.72;3.47;;;;;;;;;;5051514;28;20079;-60
2022/06/29 07:47:00;;;;;;;6.43;3.40;;;;;;;;;;5033636;28;20060;-60
2022/06/29 07:49:27;;;;;;;8.43;2.97;;;;;;;;;;5050905;28;20056;-59
2022/06/29 07:51:53;;;;;;;11.88;4.45;;;;;;;;;;5051415;28;20150;-60
2022/06/29 07:54:19;;;;;;;8.68;3.25;;;;;;;;;;5051268;28;20100;-60
2022/06/29 07:56:45;;;;;;;22.67;14.27;;;;;;;;;;5051473;28;20025;-60
2022/06/29 07:59:11;;;;;;;5.70;2.65;;;;;;;;;;5051247;28;20108;-59
2022/06/29 08:01:37;;;;;;;14.45;2.97;;;;;;;;;;5051346;28;20027;-60
2022/06/29 08:04:04;;;;;;;11.77;3.35;;;;;;;;;;5051186;28;20087;-57
2022/06/29 08:06:30;;;;;;;5.45;2.88;;;;;;;;;;5052143;28;20023;-57
2022/06/29 08:08:56;;;;;;;9.45;2.88;;;;;;;;;;5054944;28;20025;-58
2022/06/29 08:11:22;;;;;;;11.90;3.22;;;;;;;;;;5055187;28;20066;-57
2022/06/29 08:13:48;;;;;;;15.40;3.45;;;;;;;;;;5055111;28;20021;-59
2022/06/29 08:16:14;;;;;;;11.82;3.50;;;;;;;;;;5055154;28;20428;-57
2022/06/29 08:18:40;;;;;;;7.35;3.53;;;;;;;;;;5054646;28;20048;-50
2022/06/29 08:21:06;;;;;;;10.27;4.43;;;;;;;;;;5054969;28;20096;-54
2022/06/29 08:23:33;;;;;;;13.40;3.72;;;;;;;;;;5054920;28;20477;-51
2022/06/29 08:25:59;;;;;;;;;;;;;;;;;;5055364;28;20317;-51
2022/06/29 08:28:25;;;;;;;11.68;3.40;;;;;;;;;;5054633;28;19908;-51
2022/06/29 08:30:51;;;;;;;6.63;2.95;;;;;;;;;;5036996;28;20036;-53
2022/06/29 08:33:18;;;;;;;12.18;3.10;;;;;;;;;;5054620;28;20017;-51
2022/06/29 08:35:44;;;;;;;6.63;3.33;;;;;;;;;;5054699;28;20021;-54
2022/06/29 08:38:10;;;;;;;9.95;2.83;;;;;;;;;;5036602;28;20029;-53
2022/06/29 08:40:44;;;;;;;11.15;3.90;;;;;;;;;;5054696;28;20087;-51
2022/06/29 08:43:14;;;;;;;14.23;5.20;;;;;;;;;;5036685;28;20397;-51
2022/06/29 08:45:48;;;;;;;9.80;3.45;;;;;;;;;;5054385;28;20033;-53
2022/06/29 08:48:15;;;;;;;10.40;2.90;;;;;;;;;;5054082;28;20028;-52
2022/06/29 08:50:41;;;;;;;;;;;;;;;;;;5054978;28;20027;-50
2022/06/29 08:53:08;;;;;;;9.30;3.42;;;;;;;;;;5054321;28;19987;-51
2022/06/29 08:55:37;;;;;;;9.50;2.75;;;;;;;;;;5054357;28;20059;-52
2022/06/29 08:58:04;;;;;;;12.60;3.22;;;;;;;;;;5054066;28;20489;-52
2022/06/29 09:00:31;;;;;;;11.82;5.00;;;;;;;;;;5054729;28;20029;-51
2022/06/29 09:02:57;;;;;;;10.38;3.88;;;;;;;;;;5054419;28;20029;-54
2022/06/29 09:05:23;;;;;;;12.93;4.32;;;;;;;;;;5054433;28;20032;-52
2022/06/29 09:07:49;;;;;;;8.27;3.78;;;;;;;;;;5054039;28;20028;-53
2022/06/29 09:10:18;;;;;;;6.72;3.67;;;;;;;;;;5053998;28;20021;-54
2022/06/29 09:12:57;;;;;;;9.75;3.17;;;;;;;;;;5053920;28;20028;-51
2022/06/29 09:15:33;;;;;;;12.77;4.55;;;;;;;;;;5054234;28;20029;-52
2022/06/29 09:18:00;;;;;;;8.18;3.13;;;;;;;;;;5035503;28;20021;-51
2022/06/29 09:20:37;;;;;;;10.55;4.05;;;;;;;;;;5053931;28;20036;-51
2022/06/29 09:23:03;;;;;;;7.05;2.80;;;;;;;;;;5053825;28;20079;-53
2022/06/29 09:25:31;;;;;;;12.02;3.63;;;;;;;;;;5053744;28;20025;-51
2022/06/29 09:27:57;;;;;;;9.00;3.83;;;;;;;;;;5053515;28;20025;-51
2022/06/29 09:30:27;;;;;;;8.45;3.75;;;;;;;;;;5053866;28;20025;-52
2022/06/29 09:33:05;;;;;;;12.27;3.08;;;;;;;;;;5053672;28;20029;-54
2022/06/29 09:35:31;;;;;;;12.85;2.75;;;;;;;;;;5053604;28;20562;-52
2022/06/29 09:38:16;;;;;;;11.88;3.60;;;;;;;;;;5053131;28;20021;-50
2022/06/29 09:41:00;;;;;;;14.85;3.42;;;;;;;;;;5053534;28;20025;-53
2022/06/29 09:43:27;;;;;;;11.32;3.78;;;;;;;;;;5035737;28;20067;-51
2022/06/29 09:45:54;;;;;;;;;;;;;;;;;;5053872;28;20033;-54
2022/06/29 09:48:21;;;;;;;12.18;4.07;;;;;;;;;;5034973;28;20258;-53
2022/06/29 09:50:50;;;;;;;15.02;4.50;;;;;;;;;;5053473;28;20040;-53
2022/06/29 09:53:18;;;;;;;7.72;2.90;;;;;;;;;;5053314;28;20021;-52
2022/06/29 09:55:44;;;;;;;12.38;4.20;;;;;;;;;;5053213;28;20028;-51
2022/06/29 09:58:11;;;;;;;6.57;2.88;;;;;;;;;;5053000;28;20504;-51
2022/06/29 10:03:23;;;;;;;8.88;3.33;;;;;;;;;;5053357;28;20095;-51
2022/06/29 10:05:55;;;;;;;5.80;3.10;;;;;;;;;;5052948;28;20033;-50
2022/06/29 10:08:21;;;;;;;7.57;3.13;;;;;;;;;;5052721;28;20025;-50
2022/06/29 10:10:49;;;;;;;9.07;2.40;;;;;;;;;;5053292;28;20029;-52
2022/06/29 10:16:05;;;;;;;8.45;2.50;;;;;;;;;;5052175;28;20071;-51
2022/06/29 10:18:34;;;;;;;7.45;3.28;;;;;;;;;;5052330;28;20025;-50
2022/06/29 10:21:00;;;;;;;7.70;3.15;;;;;;;;;;5051336;28;20043;-50
2022/06/29 10:23:45;;;;;;;10.98;3.58;;;;;;;;;;5052231;28;20033;-51
2022/06/29 10:26:33;;;;;;;10.48;2.80;;;;;;;;;;5048139;28;20036;-51
2022/06/29 10:28:59;;;;;;;;;;;;;;;;;;5031395;28;20501;-54
2022/06/29 10:31:45;;;;;;;10.65;3.10;;;;;;;;;;5052016;28;19931;-51
2022/06/29 10:34:33;;;;;;;12.15;3.25;;;;;;;;;;5052224;28;20029;-50
2022/06/29 10:37:05;;;;;;;12.85;3.67;;;;;;;;;;5034007;28;20083;-50
2022/06/29 10:39:49;;;;;;;9.68;3.28;;;;;;;;;;5043682;28;20029;-50
2022/06/29 10:45:06;;;;;;;9.77;3.17;;;;;;;;;;5032521;28;20037;-54
2022/06/29 10:47:33;;;;;;;7.55;3.13;;;;;;;;;;5043092;28;20108;-50
2022/06/29 10:50:15;;;;;;;8.68;2.65;;;;;;;;;;5051825;28;20503;-50
2022/06/29 10:52:42;;;;;;;7.55;3.47;;;;;;;;;;5051070;28;20059;-50
2022/06/29 10:55:08;;;;;;;13.55;3.25;;;;;;;;;;5052396;28;20036;-51
2022/06/29 10:57:35;;;;;;;12.05;4.25;;;;;;;;;;5051584;28;20055;-50
2022/06/29 11:00:05;;;;;;;;;;;;;;;;;;5032615;28;20109;-50
2022/06/29 11:02:32;;;;;;;12.43;5.30;;;;;;;;;;5046351;28;19911;-50
2022/06/29 11:04:58;;;;;;;11.30;5.70;;;;;;;;;;5051463;28;20048;-52
2022/06/29 11:12:54;;;;;;;11.77;4.47;;;;;;;;;;5051770;28;20028;-50
2022/06/29 11:18:05;;;;;;;11.52;3.85;;;;;;;;;;5051450;28;19986;-54
2022/06/29 11:20:31;;;;;;;14.85;3.33;;;;;;;;;;5050440;28;20025;-52
2022/06/29 11:22:58;;;;;;;12.05;4.15;;;;;;;;;;5031876;28;20120;-50
2022/06/29 11:25:25;;;;;;;10.00;3.13;;;;;;;;;;5032233;28;20109;-50
2022/06/29 11:27:51;;;;;;;14.13;3.10;;;;;;;;;;5033364;28;20060;-52
2022/06/29 11:30:22;;;;;;;10.70;3.25;;;;;;;;;;5051462;28;20508;-52
2022/06/29 11:32:49;;;;;;;7.03;3.08;;;;;;;;;;5033213;28;20074;-50
2022/06/29 11:35:21;;;;;;;6.80;2.28;;;;;;;;;;5051506;28;20132;-54
2022/06/29 11:37:52;;;;;;;10.60;3.55;;;;;;;;;;5051043;28;20021;-51
2022/06/29 11:40:34;;;;;;;8.25;1.95;;;;;;;;;;5051625;28;20021;-50
2022/06/29 11:43:08;;;;;;;10.18;2.45;;;;;;;;;;5055567;28;20021;-51
2022/06/29 11:45:38;;;;;;;5.55;2.75;;;;;;;;;;5037913;28;20032;-51
2022/06/29 11:48:11;;;;;;;7.35;2.70;;;;;;;;;;5036974;28;20029;-51
2022/06/29 11:50:49;;;;;;;13.02;3.00;;;;;;;;;;5056098;28;20037;-54
2022/06/29 11:53:34;;;;;;;8.25;3.05;;;;;;;;;;5054549;28;20021;-53
2022/06/29 11:56:00;;;;;;;10.80;3.25;;;;;;;;;;5055353;28;20064;-53
2022/06/29 11:58:26;;;;;;;10.40;3.08;;;;;;;;;;5054941;28;20051;-52
2022/06/29 12:00:54;;;;;;;8.15;3.45;;;;;;;;;;5055390;28;20485;-53
2022/06/29 12:03:21;;;;;;;9.85;3.03;;;;;;;;;;5054941;28;20116;-52
2022/06/29 12:05:56;;;;;;;10.55;2.72;;;;;;;;;;5054547;28;20032;-53
2022/06/29 12:08:22;;;;;;;6.32;2.40;;;;;;;;;;5054951;28;20033;-51
2022/06/29 12:10:48;;;;;;;14.98;2.90;;;;;;;;;;5055193;28;20394;-52
2022/06/29 12:13:14;;;;;;;12.77;3.00;;;;;;;;;;5055159;28;20064;-54
2022/06/29 12:15:40;;;;;;;10.00;3.05;;;;;;;;;;5054833;28;20028;-54
2022/06/29 12:18:06;;;;;;;7.57;2.38;;;;;;;;;;5054430;28;20032;-52
2022/06/29 12:20:32;;;;;;;9.02;2.75;;;;;;;;;;5054864;28;20044;-51
2022/06/29 12:22:58;;;;;;;8.05;1.90;;;;;;;;;;5055106;28;20215;-54
2022/06/29 12:25:24;;;;;;;12.43;3.40;;;;;;;;;;5054512;28;20086;-54
2022/06/29 12:27:50;;;;;;;9.35;2.65;;;;;;;;;;5054675;28;20033;-55
2022/06/29 12:30:17;;;;;;;14.07;2.58;;;;;;;;;;5054762;28;20486;-51
2022/06/29 12:32:43;;;;;;;10.38;2.70;;;;;;;;;;5054332;28;20028;-52
2022/06/29 12:35:09;;;;;;;8.00;2.95;;;;;;;;;;5036759;28;20452;-51
2022/06/29 12:37:35;;;;;;;10.10;2.75;;;;;;;;;;5036723;28;20029;-54
2022/06/29 12:40:01;;;;;;;10.52;4.53;;;;;;;;;;5054584;28;20027;-52
2022/06/29 12:42:27;;;;;;;11.05;3.03;;;;;;;;;;5054244;28;20029;-51
2022/06/29 12:44:53;;;;;;;11.82;3.22;;;;;;;;;;5054653;28;20128;-51
2022/06/29 12:47:19;;;;;;;10.02;2.38;;;;;;;;;;5035913;28;20064;-52
2022/06/29 12:49:45;;;;;;;10.18;2.92;;;;;;;;;;5054149;28;20087;-51
2022/06/29 12:52:11;;;;;;;9.95;3.08;;;;;;;;;;5035789;28;20116;-52
2022/06/29 12:54:37;;;;;;;13.75;3.55;;;;;;;;;;5053834;28;20017;-52
2022/06/29 12:57:04;;;;;;;9.73;3.22;;;;;;;;;;5053919;28;20033;-52
2022/06/29 12:59:30;;;;;;;16.92;3.55;;;;;;;;;;5035974;28;20036;-54
2022/06/29 13:01:56;;;;;;;9.02;3.15;;;;;;;;;;5053722;28;20025;-54
2022/06/29 13:04:23;;;;;;;12.70;3.20;;;;;;;;;;5035986;28;20040;-53
2022/06/29 13:06:49;;;;;;;14.02;3.05;;;;;;;;;;5053912;28;20048;-50
2022/06/29 13:09:15;;;;;;;10.18;2.90;;;;;;;;;;5053572;28;20032;-54
2022/06/29 13:11:41;;;;;;;7.63;3.22;;;;;;;;;;5053988;28;20057;-54
2022/06/29 13:14:07;;;;;;;;;;;;;;;;;;5054527;28;20020;-53
2022/06/29 13:16:33;;;;;;;11.85;2.65;;;;;;;;;;5053572;28;19909;-51
2022/06/29 13:18:59;;;;;;;10.32;2.47;;;;;;;;;;5053514;28;20481;-51
2022/06/29 13:21:26;;;;;;;7.50;2.97;;;;;;;;;;5053745;28;20162;-52
2022/06/29 13:23:52;;;;;;;11.23;2.92;;;;;;;;;;5053863;28;20079;-55
2022/06/29 13:26:18;;;;;;;;;;;;;;;;;;5053744;28;20108;-54
2022/06/29 13:28:44;;;;;;;8.82;3.17;;;;;;;;;;5053493;28;19999;-55
2022/06/29 13:31:11;;;;;;;5.15;2.20;;;;;;;;;;5053257;28;20033;-55
2022/06/29 13:33:37;;;;;;;6.18;2.78;;;;;;;;;;5053312;28;20069;-55
2022/06/29 13:36:04;;;;;;;8.85;2.20;;;;;;;;;;5053464;28;20099;-52
2022/06/29 13:38:30;;;;;;;15.15;4.47;;;;;;;;;;5053339;28;20025;-54
2022/06/29 13:40:56;;;;;;;;;;;;;;;;;;5053639;28;20025;-54
2022/06/29 13:43:22;;;;;;;6.47;2.53;;;;;;;;;;5053410;28;19928;-52
2022/06/29 13:45:48;;;;;;;;;;;;;;;;;;5053376;28;20474;-52
2022/06/29 13:48:14;;;;;;;9.98;2.90;;;;;;;;;;5052861;28;19908;-54
2022/06/29 13:50:40;;;;;;;;;;;;;;;;;;5035634;28;20035;-52
2022/06/29 13:53:06;;;;;;;10.13;3.10;;;;;;;;;;5035454;28;19908;-52
2022/06/29 13:55:32;;;;;;;;;;;;;;;;;;5053611;28;20029;-51
2022/06/29 13:57:58;;;;;;;15.82;3.13;;;;;;;;;;5052753;28;19915;-52
2022/06/29 14:00:37;;;;;;;7.85;2.58;;;;;;;;;;5052485;28;20029;-56
2022/06/29 14:03:04;;;;;;;8.75;2.70;;;;;;;;;;5053146;28;20367;-59
2022/06/29 14:05:30;;;;;;;6.97;2.75;;;;;;;;;;5051072;28;20162;-56
2022/06/29 14:07:57;;;;;;;11.88;3.10;;;;;;;;;;5051770;28;20017;-58
2022/06/29 14:10:23;;;;;;;11.10;2.78;;;;;;;;;;5053489;28;20025;-57
2022/06/29 14:12:49;;;;;;;11.57;3.05;;;;;;;;;;5031468;28;20029;-58
2022/06/29 14:15:16;;;;;;;9.98;3.05;;;;;;;;;;5032807;28;20304;-54
2022/06/29 14:17:42;;;;;;;12.63;3.38;;;;;;;;;;5032861;28;20116;-55
2022/06/29 14:20:09;;;;;;;12.32;3.08;;;;;;;;;;5032900;28;20049;-56
2022/06/29 14:22:35;;;;;;;10.80;2.85;;;;;;;;;;5031515;28;20030;-55
2022/06/29 14:25:02;;;;;;;11.27;3.40;;;;;;;;;;5044024;28;20476;-51
2022/06/29 14:27:28;;;;;;;12.88;4.05;;;;;;;;;;5052011;28;20090;-57
2022/06/29 14:29:54;;;;;;;9.63;3.00;;;;;;;;;;5047856;28;20032;-56
2022/06/29 14:32:21;;;;;;;9.63;3.53;;;49.80;25.10;;;;;;5052473;28;20036;-48
2022/06/29 14:34:48;;;;;;;10.13;3.15;;;49.50;25.50;;;;;;5052122;28;20528;-50
2022/06/29 14:37:13;;;;;;;9.13;3.05;;;49.70;25.80;;;;;;5052248;28;20385;-49
2022/06/29 14:39:39;;;;;;;7.68;3.60;;;50.00;25.80;;;;;;5033847;28;20020;-48
2022/06/29 14:42:06;;;;;;;45.13;4.50;;;50.40;25.50;;;;;;5051410;28;20060;-49
2022/06/29 14:44:32;;;;;;;8.30;2.92;;;50.90;25.50;;;;;;5051069;28;20036;-48
2022/06/29 14:46:58;;;;;;;8.02;3.28;;;51.20;25.30;;;;;;5052102;28;20031;-50
2022/06/29 14:49:24;;;;;;;9.38;3.03;;;51.40;25.50;;;;;;5051674;28;20033;-50
2022/06/29 14:51:50;;;;;;;10.68;3.00;;;51.50;25.10;;;;;;5051691;28;20496;-52
2022/06/29 14:54:16;;;;;;;9.73;3.08;;;51.60;25.20;;;;;;5041434;28;20108;-48
2022/06/29 14:56:42;;;;;;;10.27;3.42;;;51.00;25.00;;;;;;5050077;28;20270;-49
2022/06/29 14:59:08;;;;;;;8.27;2.88;;;49.90;25.60;;;;;;5046110;28;20029;-50